createdAt,value
2023-02-18T00:00:21.479Z,13.10
2023-02-18T00:02:52.181Z,13.10
2023-02-18T00:05:20.630Z,13.10
2023-02-18T00:07:48.506Z,13.10
2023-02-18T00:10:17.178Z,13.10
2023-02-18T00:12:45.769Z,13.10
2023-02-18T00:15:13.967Z,13.00
2023-02-18T00:17:43.118Z,12.90
2023-02-18T00:20:11.806Z,12.90
2023-02-18T00:22:39.616Z,12.90
2023-02-18T00:25:08.036Z,12.80
2023-02-18T00:27:35.955Z,12.80
2023-02-18T00:30:04.812Z,12.80
2023-02-18T00:32:32.881Z,12.70
2023-02-18T00:35:02.121Z,12.70
2023-02-18T00:37:30.034Z,12.60
2023-02-18T00:39:58.005Z,12.60
2023-02-18T00:42:25.946Z,12.60
2023-02-18T00:44:53.873Z,12.70
2023-02-18T00:47:21.707Z,12.70
2023-02-18T00:49:49.544Z,12.60
2023-02-18T00:52:18.766Z,12.60
2023-02-18T00:54:46.683Z,12.60
2023-02-18T00:57:14.564Z,12.60
2023-02-18T00:59:42.713Z,12.60
2023-02-18T01:02:10.562Z,12.60
2023-02-18T01:04:38.510Z,12.60
2023-02-18T01:07:06.457Z,12.60
2023-02-18T01:09:35.674Z,12.60
2023-02-18T01:12:03.840Z,12.50
2023-02-18T01:14:31.787Z,12.50
2023-02-18T01:16:59.718Z,12.50
2023-02-18T01:19:27.628Z,12.60
2023-02-18T01:21:55.595Z,12.60
2023-02-18T01:24:23.576Z,12.60
2023-02-18T01:26:53.204Z,12.60
2023-02-18T01:29:21.230Z,12.60
2023-02-18T01:31:49.750Z,12.60
2023-02-18T01:34:17.969Z,12.60
2023-02-18T01:36:45.831Z,12.60
2023-02-18T01:39:14.010Z,12.60
2023-02-18T01:41:41.931Z,12.70
2023-02-18T01:44:19.402Z,12.70
2023-02-18T01:46:47.845Z,12.70
2023-02-18T01:49:18.827Z,12.70
2023-02-18T01:51:50.756Z,12.70
2023-02-18T01:54:22.945Z,12.70
2023-02-18T01:56:55.995Z,12.60
2023-02-18T01:59:28.690Z,12.60
2023-02-18T02:01:57.608Z,12.50
2023-02-18T02:04:26.288Z,12.50
2023-02-18T02:06:54.197Z,12.50
2023-02-18T02:09:24.953Z,12.50
2023-02-18T02:12:11.598Z,12.50
2023-02-18T02:15:02.636Z,12.40
2023-02-18T02:17:38.468Z,12.40
2023-02-18T02:20:38.185Z,12.40
2023-02-18T02:23:31.557Z,12.40
2023-02-18T02:26:29.495Z,12.40
2023-02-18T02:29:33.948Z,12.40
2023-02-18T02:32:19.232Z,12.40
2023-02-18T02:34:55.694Z,12.40
2023-02-18T02:37:31.406Z,12.40
2023-02-18T02:40:13.950Z,12.40
2023-02-18T02:42:51.988Z,12.40
2023-02-18T02:45:30.259Z,12.40
2023-02-18T02:48:06.074Z,12.40
2023-02-18T02:50:39.859Z,12.40
2023-02-18T02:53:15.071Z,12.30
2023-02-18T02:55:44.355Z,12.30
2023-02-18T02:58:16.937Z,12.30
2023-02-18T03:01:04.896Z,12.30
2023-02-18T03:03:52.479Z,12.20
2023-02-18T03:06:37.999Z,12.20
2023-02-18T03:09:15.201Z,12.20
2023-02-18T03:11:48.194Z,12.20
2023-02-18T03:14:24.163Z,12.20
2023-02-18T03:16:59.614Z,12.20
2023-02-18T03:19:33.950Z,12.30
2023-02-18T03:22:08.646Z,12.20
2023-02-18T03:24:40.348Z,12.20
2023-02-18T03:27:13.917Z,12.30
2023-02-18T03:29:43.048Z,12.30
2023-02-18T03:32:14.107Z,12.30
2023-02-18T03:34:47.018Z,12.30
2023-02-18T03:37:17.029Z,12.40
2023-02-18T03:39:49.333Z,12.30
2023-02-18T03:42:18.647Z,12.30
2023-02-18T03:44:46.918Z,12.30
2023-02-18T03:47:14.838Z,12.40
2023-02-18T03:49:42.862Z,12.40
2023-02-18T03:52:11.468Z,12.40
2023-02-18T03:54:40.824Z,12.40
2023-02-18T03:57:08.714Z,12.40
2023-02-18T03:59:36.620Z,12.40
2023-02-18T04:02:04.626Z,12.50
2023-02-18T04:04:32.705Z,12.40
2023-02-18T04:07:00.669Z,12.40
2023-02-18T04:09:28.531Z,12.40
2023-02-18T04:11:57.745Z,12.40
2023-02-18T04:14:25.875Z,12.30
2023-02-18T04:16:53.820Z,12.30
2023-02-18T04:19:21.782Z,12.30
2023-02-18T04:21:49.649Z,12.20
2023-02-18T04:24:17.523Z,12.30
2023-02-18T04:26:45.439Z,12.30
2023-02-18T04:29:14.680Z,12.30
2023-02-18T04:31:42.716Z,12.30
2023-02-18T04:34:10.708Z,12.30
2023-02-18T04:36:38.823Z,12.30
2023-02-18T04:39:06.717Z,12.40
2023-02-18T04:41:34.563Z,12.50
2023-02-18T04:44:02.467Z,12.50
2023-02-18T04:46:31.929Z,12.50
2023-02-18T04:49:00.262Z,12.60
2023-02-18T04:51:28.397Z,12.60
2023-02-18T04:53:56.332Z,12.60
2023-02-18T04:56:24.355Z,12.60
2023-02-18T04:58:52.277Z,12.50
2023-02-18T05:01:20.144Z,12.60
2023-02-18T05:03:49.506Z,12.60
2023-02-18T05:06:17.629Z,12.60
2023-02-18T05:08:45.498Z,12.60
2023-02-18T05:11:13.656Z,12.70
2023-02-18T05:13:41.519Z,12.60
2023-02-18T05:16:09.782Z,12.60
2023-02-18T05:18:37.973Z,12.60
2023-02-18T05:21:07.482Z,12.60
2023-02-18T05:23:35.442Z,12.60
2023-02-18T05:26:03.306Z,12.60
2023-02-18T05:28:31.227Z,12.60
2023-02-18T05:30:59.461Z,12.60
2023-02-18T05:33:27.770Z,12.60
2023-02-18T05:35:55.652Z,12.60
2023-02-18T05:38:24.938Z,12.60
2023-02-18T05:40:52.848Z,12.60
2023-02-18T05:43:20.833Z,12.60
2023-02-18T05:45:48.757Z,12.60
2023-02-18T05:48:16.648Z,12.50
2023-02-18T05:50:44.492Z,12.50
2023-02-18T05:53:12.486Z,12.50
2023-02-18T05:55:41.872Z,12.40
2023-02-18T05:58:10.036Z,12.50
2023-02-18T06:00:37.959Z,12.50
2023-02-18T06:03:05.896Z,12.50
2023-02-18T06:05:33.841Z,12.40
2023-02-18T06:08:01.852Z,12.50
2023-02-18T06:10:29.746Z,12.40
2023-02-18T06:13:00.140Z,12.40
2023-02-18T06:15:28.058Z,12.40
2023-02-18T06:17:56.005Z,12.40
2023-02-18T06:20:23.956Z,12.40
2023-02-18T06:22:52.062Z,12.40
2023-02-18T06:25:20.058Z,12.40
2023-02-18T06:27:47.995Z,12.40
2023-02-18T06:30:17.412Z,12.40
2023-02-18T06:32:45.346Z,12.40
2023-02-18T06:35:13.452Z,12.40
2023-02-18T06:37:41.435Z,12.40
2023-02-18T06:40:10.193Z,12.40
2023-02-18T06:42:38.120Z,12.40
2023-02-18T06:45:06.772Z,12.40
2023-02-18T06:47:36.412Z,12.50
2023-02-18T06:50:04.856Z,12.60
2023-02-18T06:52:33.442Z,12.60
2023-02-18T06:55:01.415Z,12.60
2023-02-18T06:57:29.376Z,12.60
2023-02-18T06:59:57.321Z,12.60
2023-02-18T07:02:25.269Z,12.60
2023-02-18T07:04:55.094Z,12.70
2023-02-18T07:07:23.004Z,12.70
2023-02-18T07:09:50.967Z,12.70
2023-02-18T07:12:18.847Z,12.70
2023-02-18T07:14:46.746Z,12.70
2023-02-18T07:17:14.901Z,12.70
2023-02-18T07:19:42.855Z,12.70
2023-02-18T07:22:12.169Z,12.70
2023-02-18T07:24:40.075Z,12.70
2023-02-18T07:27:07.948Z,12.70
2023-02-18T07:29:35.812Z,12.80
2023-02-18T07:32:03.718Z,12.70
2023-02-18T07:34:31.905Z,12.70
2023-02-18T07:36:59.817Z,12.70
2023-02-18T07:39:29.922Z,12.80
2023-02-18T07:41:57.900Z,12.90
2023-02-18T07:44:27.638Z,12.90
2023-02-18T07:46:55.584Z,12.80
2023-02-18T07:49:23.532Z,12.80
2023-02-18T07:51:51.821Z,12.90
2023-02-18T07:54:19.822Z,12.90
2023-02-18T07:56:49.255Z,12.90
2023-02-18T07:59:17.127Z,12.90
2023-02-18T08:01:45.482Z,12.90
2023-02-18T08:04:15.147Z,12.90
2023-02-18T08:06:46.102Z,12.90
2023-02-18T08:09:15.006Z,12.90
2023-02-18T08:11:43.237Z,12.90
2023-02-18T08:14:12.652Z,12.90
2023-02-18T08:16:40.598Z,12.80
2023-02-18T08:19:08.603Z,12.90
2023-02-18T08:21:36.492Z,13.00
2023-02-18T08:24:04.803Z,13.00
2023-02-18T08:26:32.792Z,13.00
2023-02-18T08:29:00.741Z,13.00
2023-02-18T08:31:31.583Z,13.00
2023-02-18T08:34:00.857Z,13.00
2023-02-18T08:36:29.198Z,13.00
2023-02-18T08:38:58.646Z,13.10
2023-02-18T08:41:26.499Z,13.00
2023-02-18T08:43:54.620Z,13.00
2023-02-18T08:46:34.962Z,13.00
2023-02-18T08:49:05.453Z,13.00
2023-02-18T08:51:33.837Z,13.10
2023-02-18T08:54:01.732Z,13.10
2023-02-18T08:56:29.949Z,13.10
2023-02-18T08:58:58.031Z,13.10
2023-02-18T09:01:26.052Z,13.20
2023-02-18T09:03:53.990Z,13.20
2023-02-18T09:06:23.299Z,13.20
2023-02-18T09:08:51.505Z,13.20
2023-02-18T09:11:20.592Z,13.20
2023-02-18T09:13:48.524Z,13.10
2023-02-18T09:16:19.005Z,13.20
2023-02-18T09:18:47.898Z,13.20
2023-02-18T09:21:19.077Z,13.20
2023-02-18T09:23:48.742Z,13.20
2023-02-18T09:26:21.196Z,13.20
2023-02-18T09:28:49.424Z,13.20
2023-02-18T09:31:19.612Z,13.10
2023-02-18T09:33:50.595Z,13.10
2023-02-18T09:36:20.406Z,13.00
2023-02-18T09:38:50.263Z,13.00
2023-02-18T09:41:30.219Z,13.00
2023-02-18T09:44:02.308Z,13.10
2023-02-18T09:46:33.533Z,13.20
2023-02-18T09:49:04.568Z,13.40
2023-02-18T09:51:32.476Z,13.30
2023-02-18T09:54:01.898Z,13.30
2023-02-18T09:56:34.735Z,13.30
2023-02-18T09:59:08.186Z,13.30
2023-02-18T10:01:38.886Z,13.20
2023-02-18T10:04:14.160Z,13.30
2023-02-18T10:06:42.195Z,13.20
2023-02-18T10:09:20.863Z,13.10
2023-02-18T10:11:52.467Z,13.10
2023-02-18T10:14:20.918Z,13.10
2023-02-18T10:16:54.928Z,13.10
2023-02-18T10:19:27.124Z,13.20
2023-02-18T10:21:56.699Z,13.20
2023-02-18T10:24:31.643Z,13.10
2023-02-18T10:27:00.783Z,13.10
2023-02-18T10:29:30.225Z,13.10
2023-02-18T10:32:05.689Z,13.10
2023-02-18T10:34:42.396Z,13.00
2023-02-18T10:37:31.266Z,13.00
2023-02-18T10:40:13.145Z,13.00
2023-02-18T10:42:51.686Z,13.00
2023-02-18T10:45:31.906Z,13.00
2023-02-18T10:48:18.459Z,13.00
2023-02-18T10:50:47.208Z,13.00
2023-02-18T10:53:19.273Z,13.00
2023-02-18T10:55:50.404Z,13.00
2023-02-18T10:58:37.194Z,13.00
2023-02-18T11:01:08.662Z,12.90
2023-02-18T11:03:43.155Z,13.00
2023-02-18T11:06:20.851Z,12.90
2023-02-18T11:08:50.597Z,13.00
2023-02-18T11:11:25.571Z,13.00
2023-02-18T11:13:56.020Z,13.00
2023-02-18T11:16:25.651Z,13.00
2023-02-18T11:18:53.600Z,13.00
2023-02-18T11:21:27.407Z,13.10
2023-02-18T11:23:56.819Z,13.10
2023-02-18T11:26:31.458Z,13.20
2023-02-18T11:29:04.025Z,13.20
2023-02-18T11:31:42.208Z,13.30
2023-02-18T11:34:17.748Z,13.40
2023-02-18T11:36:46.134Z,13.40
2023-02-18T11:39:21.510Z,13.40
2023-02-18T11:41:56.740Z,13.50
2023-02-18T11:44:30.911Z,13.60
2023-02-18T11:47:02.646Z,13.60
2023-02-18T11:49:31.738Z,13.60
2023-02-18T11:52:07.275Z,13.60
2023-02-18T11:54:36.116Z,13.70
2023-02-18T11:57:07.436Z,13.70
2023-02-18T11:59:38.718Z,13.80
2023-02-18T12:02:26.950Z,13.90
2023-02-18T12:05:00.906Z,14.00
2023-02-18T12:07:33.275Z,14.10
2023-02-18T12:10:05.251Z,14.20
2023-02-18T12:12:46.231Z,14.30
2023-02-18T12:15:18.726Z,14.30
2023-02-18T12:18:01.176Z,14.30
2023-02-18T12:21:00.975Z,14.30
2023-02-18T12:23:35.560Z,14.40
2023-02-18T12:26:16.520Z,14.30
2023-02-18T12:29:01.700Z,14.30
2023-02-18T12:31:44.303Z,14.40
2023-02-18T12:34:32.079Z,14.60
2023-02-18T12:37:10.344Z,14.70
2023-02-18T12:39:58.464Z,14.80
2023-02-18T12:42:49.851Z,14.80
2023-02-18T12:45:52.508Z,14.80
2023-02-18T12:48:44.859Z,14.80
2023-02-18T12:51:23.493Z,14.90
2023-02-18T12:54:07.758Z,14.90
2023-02-18T12:56:46.484Z,14.90
2023-02-18T12:59:34.396Z,15.00
2023-02-18T13:02:16.851Z,14.90
2023-02-18T13:04:53.787Z,14.70
2023-02-18T13:07:34.460Z,14.60
2023-02-18T13:10:15.717Z,14.60
2023-02-18T13:12:49.389Z,14.60
2023-02-18T13:15:21.485Z,14.60
2023-02-18T13:17:57.912Z,14.60
2023-02-18T13:20:36.115Z,14.50
2023-02-18T13:23:05.505Z,14.50
2023-02-18T13:25:38.515Z,14.40
2023-02-18T13:28:11.799Z,14.40
2023-02-18T13:30:46.668Z,14.30
2023-02-18T13:33:23.507Z,14.40
2023-02-18T13:35:58.969Z,14.40
2023-02-18T13:38:54.147Z,14.50
2023-02-18T13:41:22.501Z,14.60
2023-02-18T13:43:50.545Z,14.50
2023-02-18T13:46:20.025Z,14.50
2023-02-18T13:48:52.854Z,14.60
2023-02-18T13:51:32.539Z,14.60
2023-02-18T13:54:05.146Z,14.60
2023-02-18T13:56:36.446Z,14.70
2023-02-18T13:59:12.919Z,14.80
2023-02-18T14:01:44.652Z,14.80
2023-02-18T14:04:53.124Z,14.90
2023-02-18T14:07:45.315Z,15.00
2023-02-18T14:10:29.235Z,15.20
2023-02-18T14:13:24.182Z,15.30
2023-02-18T14:15:59.881Z,15.30
2023-02-18T14:18:49.933Z,15.50
2023-02-18T14:21:37.239Z,15.40
2023-02-18T14:24:16.861Z,15.50
2023-02-18T14:26:47.563Z,15.50
2023-02-18T14:29:23.350Z,15.70
2023-02-18T14:31:55.185Z,15.80
2023-02-18T14:34:51.486Z,15.80
2023-02-18T14:37:54.170Z,15.70
2023-02-18T14:40:51.345Z,15.40
2023-02-18T14:43:33.623Z,15.20
2023-02-18T14:46:12.336Z,15.10
2023-02-18T14:49:03.738Z,15.00
2023-02-18T14:51:34.409Z,14.90
2023-02-18T14:54:08.041Z,15.20
2023-02-18T14:56:43.193Z,15.20
2023-02-18T14:59:14.705Z,15.10
2023-02-18T15:01:42.703Z,15.10
2023-02-18T15:04:16.109Z,15.00
2023-02-18T15:06:44.351Z,15.00
2023-02-18T15:09:20.880Z,15.00
2023-02-18T15:11:52.143Z,14.90
2023-02-18T15:14:23.117Z,15.00
2023-02-18T15:16:52.187Z,14.90
2023-02-18T15:19:22.823Z,14.80
2023-02-18T15:21:52.409Z,14.70
2023-02-18T15:24:27.088Z,14.70
2023-02-18T15:26:57.665Z,14.70
2023-02-18T15:29:27.676Z,14.70
2023-02-18T15:31:58.058Z,14.50
2023-02-18T15:34:34.143Z,14.40
2023-02-18T15:37:03.512Z,14.30
2023-02-18T15:39:33.654Z,14.20
2023-02-18T15:42:06.969Z,14.00
2023-02-18T15:44:36.957Z,14.00
2023-02-18T15:47:09.084Z,13.90
2023-02-18T15:49:39.088Z,13.80
2023-02-18T15:52:08.643Z,13.80
2023-02-18T15:54:40.742Z,13.70
2023-02-18T15:57:14.110Z,13.60
2023-02-18T15:59:46.731Z,13.50
2023-02-18T16:02:19.941Z,13.50
2023-02-18T16:04:59.687Z,13.40
2023-02-18T16:07:30.815Z,13.30
2023-02-18T16:10:16.056Z,13.20
2023-02-18T16:12:48.948Z,13.10
2023-02-18T16:15:26.028Z,13.10
2023-02-18T16:17:54.115Z,13.10
2023-02-18T16:20:29.862Z,13.10
2023-02-18T16:23:02.901Z,13.00
2023-02-18T16:25:45.540Z,13.00
2023-02-18T16:28:16.421Z,12.90
2023-02-18T16:30:46.329Z,12.90
2023-02-18T16:33:14.653Z,12.80
2023-02-18T16:35:49.958Z,12.80
2023-02-18T16:38:20.046Z,12.70
2023-02-18T16:40:49.775Z,12.70
2023-02-18T16:43:19.406Z,12.60
2023-02-18T16:45:50.017Z,12.70
2023-02-18T16:48:21.455Z,12.70
2023-02-18T16:50:51.610Z,12.60
2023-02-18T16:53:20.040Z,12.50
2023-02-18T16:55:51.442Z,12.50
2023-02-18T16:58:19.435Z,12.40
2023-02-18T17:00:52.139Z,12.40
2023-02-18T17:03:20.895Z,12.40
2023-02-18T17:05:48.934Z,12.40
2023-02-18T17:08:20.473Z,12.30
2023-02-18T17:10:51.425Z,12.30
2023-02-18T17:13:21.569Z,12.30
2023-02-18T17:15:53.190Z,12.20
2023-02-18T17:18:21.443Z,12.20
2023-02-18T17:20:49.700Z,12.20
2023-02-18T17:23:18.773Z,12.10
2023-02-18T17:25:48.249Z,12.00
2023-02-18T17:28:18.892Z,12.00
2023-02-18T17:30:51.827Z,12.00
2023-02-18T17:33:20.991Z,11.90
2023-02-18T17:35:48.948Z,11.90
2023-02-18T17:38:18.699Z,11.80
2023-02-18T17:40:46.827Z,11.80
2023-02-18T17:43:17.712Z,11.80
2023-02-18T17:45:49.927Z,11.80
2023-02-18T17:48:17.901Z,11.80
2023-02-18T17:50:45.791Z,11.80
2023-02-18T17:53:15.193Z,11.80
2023-02-18T17:55:44.095Z,11.80
2023-02-18T17:58:12.986Z,11.80
2023-02-18T18:00:44.554Z,11.80
2023-02-18T18:03:13.927Z,11.80
2023-02-18T18:05:44.005Z,11.80
2023-02-18T18:08:11.964Z,11.70
2023-02-18T18:10:42.346Z,11.70
2023-02-18T18:13:16.350Z,11.70
2023-02-18T18:15:46.258Z,11.70
2023-02-18T18:18:15.430Z,11.70
2023-02-18T18:20:46.117Z,11.70
2023-02-18T18:23:16.337Z,11.70
2023-02-18T18:25:46.111Z,11.70
2023-02-18T18:28:14.699Z,11.70
2023-02-18T18:30:46.713Z,11.70
2023-02-18T18:33:16.874Z,11.70
2023-02-18T18:35:46.806Z,11.70
2023-02-18T18:38:15.148Z,11.70
2023-02-18T18:40:44.051Z,11.70
2023-02-18T18:43:18.819Z,11.70
2023-02-18T18:45:48.379Z,11.60
2023-02-18T18:48:16.606Z,11.60
2023-02-18T18:50:45.122Z,11.60
2023-02-18T18:53:19.365Z,11.60
2023-02-18T18:55:47.459Z,11.60
2023-02-18T18:58:20.398Z,11.60
2023-02-18T19:00:51.547Z,11.60
2023-02-18T19:03:20.141Z,11.60
2023-02-18T19:05:49.463Z,11.60
2023-02-18T19:08:19.430Z,11.50
2023-02-18T19:10:49.447Z,11.50
2023-02-18T19:13:18.772Z,11.50
2023-02-18T19:15:47.169Z,11.50
2023-02-18T19:18:17.812Z,11.60
2023-02-18T19:20:46.679Z,11.60
2023-02-18T19:23:15.022Z,11.60
2023-02-18T19:25:44.485Z,11.50
2023-02-18T19:28:13.785Z,11.60
2023-02-18T19:30:42.548Z,11.50
2023-02-18T19:33:13.646Z,11.50
2023-02-18T19:35:44.021Z,11.50
2023-02-18T19:38:13.568Z,11.50
2023-02-18T19:40:41.956Z,11.50
2023-02-18T19:43:10.789Z,11.50
2023-02-18T19:45:42.983Z,11.50
2023-02-18T19:48:11.567Z,11.50
2023-02-18T19:50:40.478Z,11.40
2023-02-18T19:53:10.340Z,11.40
2023-02-18T19:55:38.428Z,11.40
2023-02-18T19:58:06.420Z,11.40
2023-02-18T20:00:34.480Z,11.40
2023-02-18T20:03:02.412Z,11.40
2023-02-18T20:05:30.321Z,11.40
2023-02-18T20:07:58.236Z,11.40
2023-02-18T20:10:27.904Z,11.40
2023-02-18T20:12:55.822Z,11.40
2023-02-18T20:15:23.787Z,11.40
2023-02-18T20:17:51.693Z,11.40
2023-02-18T20:20:20.423Z,11.40
2023-02-18T20:22:48.360Z,11.40
2023-02-18T20:25:16.333Z,11.40
2023-02-18T20:27:59.903Z,11.40
2023-02-18T20:30:28.615Z,11.40
2023-02-18T20:32:56.533Z,11.40
2023-02-18T20:35:24.601Z,11.30
2023-02-18T20:37:52.516Z,11.30
2023-02-18T20:40:20.511Z,11.30
2023-02-18T20:42:49.688Z,11.30
2023-02-18T20:45:17.682Z,11.20
2023-02-18T20:47:45.600Z,11.20
2023-02-18T20:50:13.531Z,11.30
2023-02-18T20:52:41.429Z,11.30
2023-02-18T20:55:09.544Z,11.20
2023-02-18T20:57:37.412Z,11.20
2023-02-18T21:00:10.065Z,11.20
2023-02-18T21:02:38.006Z,11.20
2023-02-18T21:05:06.611Z,11.20
2023-02-18T21:07:34.570Z,11.20
2023-02-18T21:10:03.936Z,11.10
2023-02-18T21:12:31.843Z,11.10
2023-02-18T21:14:59.689Z,11.10
2023-02-18T21:17:28.969Z,11.10
2023-02-18T21:19:56.954Z,11.10
2023-02-18T21:22:24.910Z,11.10
2023-02-18T21:24:52.898Z,11.10
2023-02-18T21:27:20.849Z,11.10
2023-02-18T21:29:48.828Z,11.00
2023-02-18T21:32:16.848Z,11.00
2023-02-18T21:34:46.372Z,11.00
2023-02-18T21:37:14.320Z,11.10
2023-02-18T21:39:42.244Z,11.00
2023-02-18T21:42:10.592Z,11.00
2023-02-18T21:44:42.958Z,11.00
2023-02-18T21:47:11.960Z,11.00
2023-02-18T21:49:39.888Z,11.00
2023-02-18T21:52:09.378Z,11.00
2023-02-18T21:54:39.694Z,11.00
2023-02-18T21:57:10.233Z,11.00
2023-02-18T21:59:38.526Z,11.00
2023-02-18T22:02:08.341Z,11.00
2023-02-18T22:04:37.549Z,11.00
2023-02-18T22:07:05.589Z,11.00
2023-02-18T22:09:34.930Z,11.00
2023-02-18T22:12:03.474Z,11.10
2023-02-18T22:14:31.581Z,11.10
2023-02-18T22:16:59.992Z,11.10
2023-02-18T22:19:28.086Z,11.10
2023-02-18T22:21:57.463Z,11.10
2023-02-18T22:24:25.798Z,11.10
2023-02-18T22:26:55.064Z,11.00
2023-02-18T22:29:23.356Z,11.00
2023-02-18T22:31:53.307Z,11.10
2023-02-18T22:34:21.734Z,11.10
2023-02-18T22:36:50.105Z,11.10
2023-02-18T22:39:18.018Z,11.10
2023-02-18T22:41:46.022Z,11.10
2023-02-18T22:44:17.645Z,11.10
2023-02-18T22:46:46.089Z,11.10
2023-02-18T22:49:14.528Z,11.10
2023-02-18T22:51:44.446Z,11.00
2023-02-18T22:54:14.218Z,11.00
2023-02-18T22:56:42.543Z,11.00
2023-02-18T22:59:12.312Z,11.00
2023-02-18T23:01:43.548Z,11.00
2023-02-18T23:04:14.397Z,11.00
2023-02-18T23:06:44.153Z,11.00
2023-02-18T23:09:15.552Z,11.00
2023-02-18T23:11:43.794Z,11.00
2023-02-18T23:14:21.437Z,11.00
2023-02-18T23:17:10.193Z,11.00
2023-02-18T23:19:38.779Z,10.90
2023-02-18T23:22:07.065Z,10.90
2023-02-18T23:24:35.806Z,10.80
2023-02-18T23:27:04.412Z,10.80
2023-02-18T23:29:33.477Z,10.80
2023-02-18T23:32:03.201Z,10.80
2023-02-18T23:34:31.266Z,10.80
2023-02-18T23:36:59.360Z,10.80
2023-02-18T23:39:27.833Z,10.80
2023-02-18T23:41:55.996Z,10.80
2023-02-18T23:44:25.470Z,10.90
2023-02-18T23:46:53.894Z,10.90
2023-02-18T23:49:24.780Z,10.90
2023-02-18T23:51:54.662Z,10.90
2023-02-18T23:54:23.678Z,10.90
2023-02-18T23:56:51.672Z,10.80
2023-02-18T23:59:19.787Z,10.90
